sensor_id;sensor_type;location;lat;lon;timestamp;temperature;humidity
18581;DHT22;9420;50.876;7.012;2023-07-28T00:00:42;16.87;95.48
18581;DHT22;9420;50.876;7.012;2023-07-28T00:03:08;16.81;95.94
18581;DHT22;9420;50.876;7.012;2023-07-28T00:05:35;16.87;95.86
18581;DHT22;9420;50.876;7.012;2023-07-28T00:08:02;16.88;95.68
18581;DHT22;9420;50.876;7.012;2023-07-28T00:10:29;16.91;95.91
18581;DHT22;9420;50.876;7.012;2023-07-28T00:12:56;16.97;95.80
18581;DHT22;9420;50.876;7.012;2023-07-28T00:15:22;17.00;96.02
18581;DHT22;9420;50.876;7.012;2023-07-28T00:17:50;17.03;96.55
18581;DHT22;9420;50.876;7.012;2023-07-28T00:20:17;17.04;96.22
18581;DHT22;9420;50.876;7.012;2023-07-28T00:22:44;17.06;96.16
18581;DHT22;9420;50.876;7.012;2023-07-28T00:25:10;17.00;96.46
18581;DHT22;9420;50.876;7.012;2023-07-28T00:27:37;17.02;96.40
18581;DHT22;9420;50.876;7.012;2023-07-28T00:30:04;16.99;96.50
18581;DHT22;9420;50.876;7.012;2023-07-28T00:32:31;17.04;95.64
18581;DHT22;9420;50.876;7.012;2023-07-28T00:34:59;17.06;96.11
18581;DHT22;9420;50.876;7.012;2023-07-28T00:37:26;17.04;96.40
18581;DHT22;9420;50.876;7.012;2023-07-28T00:39:53;17.11;96.57
18581;DHT22;9420;50.876;7.012;2023-07-28T00:42:19;17.13;96.80
18581;DHT22;9420;50.876;7.012;2023-07-28T00:44:46;17.07;96.62
18581;DHT22;9420;50.876;7.012;2023-07-28T00:47:13;17.13;96.68
18581;DHT22;9420;50.876;7.012;2023-07-28T00:49:40;17.10;96.72
18581;DHT22;9420;50.876;7.012;2023-07-28T00:52:08;17.06;96.63
18581;DHT22;9420;50.876;7.012;2023-07-28T00:54:35;17.10;96.61
18581;DHT22;9420;50.876;7.012;2023-07-28T00:57:02;17.10;96.70
18581;DHT22;9420;50.876;7.012;2023-07-28T00:59:30;17.11;96.62
18581;DHT22;9420;50.876;7.012;2023-07-28T01:01:57;17.18;96.69
18581;DHT22;9420;50.876;7.012;2023-07-28T01:04:24;17.15;96.63
18581;DHT22;9420;50.876;7.012;2023-07-28T01:06:55;17.20;96.83
18581;DHT22;9420;50.876;7.012;2023-07-28T01:09:31;17.18;96.84
18581;DHT22;9420;50.876;7.012;2023-07-28T01:12:00;17.20;96.64
18581;DHT22;9420;50.876;7.012;2023-07-28T01:14:33;17.17;96.54
18581;DHT22;9420;50.876;7.012;2023-07-28T01:17:00;17.14;96.76
18581;DHT22;9420;50.876;7.012;2023-07-28T01:19:26;17.15;96.68
18581;DHT22;9420;50.876;7.012;2023-07-28T01:21:57;17.18;96.86
18581;DHT22;9420;50.876;7.012;2023-07-28T01:24:35;17.13;96.62
18581;DHT22;9420;50.876;7.012;2023-07-28T01:27:05;17.18;96.77
18581;DHT22;9420;50.876;7.012;2023-07-28T01:29:32;17.23;96.52
18581;DHT22;9420;50.876;7.012;2023-07-28T01:32:00;17.17;96.74
18581;DHT22;9420;50.876;7.012;2023-07-28T01:34:26;17.11;96.58
18581;DHT22;9420;50.876;7.012;2023-07-28T01:36:53;17.13;96.72
18581;DHT22;9420;50.876;7.012;2023-07-28T01:39:19;17.20;97.13
18581;DHT22;9420;50.876;7.012;2023-07-28T01:41:46;17.21;96.90
18581;DHT22;9420;50.876;7.012;2023-07-28T01:44:14;17.13;95.94
18581;DHT22;9420;50.876;7.012;2023-07-28T01:46:41;17.14;96.28
18581;DHT22;9420;50.876;7.012;2023-07-28T01:49:07;17.14;96.00
18581;DHT22;9420;50.876;7.012;2023-07-28T01:51:34;17.18;95.92
18581;DHT22;9420;50.876;7.012;2023-07-28T01:54:01;17.27;94.49
18581;DHT22;9420;50.876;7.012;2023-07-28T01:56:27;17.30;94.87
18581;DHT22;9420;50.876;7.012;2023-07-28T01:58:54;17.21;95.23
18581;DHT22;9420;50.876;7.012;2023-07-28T02:01:22;17.21;95.81
18581;DHT22;9420;50.876;7.012;2023-07-28T02:03:48;17.20;96.05
18581;DHT22;9420;50.876;7.012;2023-07-28T02:06:15;17.10;95.85
18581;DHT22;9420;50.876;7.012;2023-07-28T02:08:42;17.13;96.10
18581;DHT22;9420;50.876;7.012;2023-07-28T02:11:08;17.11;96.50
18581;DHT22;9420;50.876;7.012;2023-07-28T02:13:35;17.13;96.65
18581;DHT22;9420;50.876;7.012;2023-07-28T02:16:02;17.11;96.73
18581;DHT22;9420;50.876;7.012;2023-07-28T02:18:29;17.08;96.80
18581;DHT22;9420;50.876;7.012;2023-07-28T02:20:56;17.10;96.86
18581;DHT22;9420;50.876;7.012;2023-07-28T02:23:23;17.13;97.44
18581;DHT22;9420;50.876;7.012;2023-07-28T02:25:49;17.11;97.01
18581;DHT22;9420;50.876;7.012;2023-07-28T02:28:16;17.13;97.01
18581;DHT22;9420;50.876;7.012;2023-07-28T02:30:43;17.11;97.02
18581;DHT22;9420;50.876;7.012;2023-07-28T02:33:09;17.14;96.81
18581;DHT22;9420;50.876;7.012;2023-07-28T02:35:37;17.13;96.83
18581;DHT22;9420;50.876;7.012;2023-07-28T02:38:04;17.15;96.90
18581;DHT22;9420;50.876;7.012;2023-07-28T02:40:32;17.13;96.91
18581;DHT22;9420;50.876;7.012;2023-07-28T02:42:58;17.13;97.10
18581;DHT22;9420;50.876;7.012;2023-07-28T02:45:25;17.10;97.10
18581;DHT22;9420;50.876;7.012;2023-07-28T02:47:51;17.14;97.20
18581;DHT22;9420;50.876;7.012;2023-07-28T02:50:18;17.11;97.11
18581;DHT22;9420;50.876;7.012;2023-07-28T02:52:46;17.10;97.14
18581;DHT22;9420;50.876;7.012;2023-07-28T02:55:13;17.10;97.31
18581;DHT22;9420;50.876;7.012;2023-07-28T02:57:39;17.08;97.03
18581;DHT22;9420;50.876;7.012;2023-07-28T03:00:07;17.13;97.04
18581;DHT22;9420;50.876;7.012;2023-07-28T03:02:35;17.13;97.05
18581;DHT22;9420;50.876;7.012;2023-07-28T03:05:02;17.11;97.00
18581;DHT22;9420;50.876;7.012;2023-07-28T03:07:29;17.10;96.98
18581;DHT22;9420;50.876;7.012;2023-07-28T03:09:58;17.11;96.89
18581;DHT22;9420;50.876;7.012;2023-07-28T03:12:24;17.17;96.68
18581;DHT22;9420;50.876;7.012;2023-07-28T03:14:51;17.13;97.02
18581;DHT22;9420;50.876;7.012;2023-07-28T03:17:18;17.11;96.96
18581;DHT22;9420;50.876;7.012;2023-07-28T03:19:44;17.10;97.10
18581;DHT22;9420;50.876;7.012;2023-07-28T03:22:11;17.08;97.15
18581;DHT22;9420;50.876;7.012;2023-07-28T03:24:38;17.10;97.35
18581;DHT22;9420;50.876;7.012;2023-07-28T03:27:06;17.06;97.32
18581;DHT22;9420;50.876;7.012;2023-07-28T03:29:33;17.07;97.55
18581;DHT22;9420;50.876;7.012;2023-07-28T03:32:00;17.13;97.19
18581;DHT22;9420;50.876;7.012;2023-07-28T03:34:27;17.08;97.21
18581;DHT22;9420;50.876;7.012;2023-07-28T03:36:54;17.10;97.19
18581;DHT22;9420;50.876;7.012;2023-07-28T03:39:20;17.08;97.11
18581;DHT22;9420;50.876;7.012;2023-07-28T03:41:47;17.06;97.15
18581;DHT22;9420;50.876;7.012;2023-07-28T03:44:15;17.10;97.28
18581;DHT22;9420;50.876;7.012;2023-07-28T03:46:42;17.07;97.30
18581;DHT22;9420;50.876;7.012;2023-07-28T03:49:08;17.07;97.13
18581;DHT22;9420;50.876;7.012;2023-07-28T03:51:35;17.07;97.24
18581;DHT22;9420;50.876;7.012;2023-07-28T03:54:02;17.08;97.32
18581;DHT22;9420;50.876;7.012;2023-07-28T03:56:28;17.08;97.17
18581;DHT22;9420;50.876;7.012;2023-07-28T03:58:55;17.10;97.28
18581;DHT22;9420;50.876;7.012;2023-07-28T04:01:23;17.08;97.25
18581;DHT22;9420;50.876;7.012;2023-07-28T04:03:50;17.10;97.37
18581;DHT22;9420;50.876;7.012;2023-07-28T04:06:17;17.13;97.30
18581;DHT22;9420;50.876;7.012;2023-07-28T04:08:43;17.10;97.19
18581;DHT22;9420;50.876;7.012;2023-07-28T04:11:10;17.10;97.21
18581;DHT22;9420;50.876;7.012;2023-07-28T04:13:36;17.06;97.20
18581;DHT22;9420;50.876;7.012;2023-07-28T04:16:03;17.10;97.03
18581;DHT22;9420;50.876;7.012;2023-07-28T04:18:31;17.14;96.92
18581;DHT22;9420;50.876;7.012;2023-07-28T04:20:58;17.14;97.03
18581;DHT22;9420;50.876;7.012;2023-07-28T04:23:25;17.13;97.31
18581;DHT22;9420;50.876;7.012;2023-07-28T04:25:51;17.14;97.10
18581;DHT22;9420;50.876;7.012;2023-07-28T04:28:18;17.14;97.39
18581;DHT22;9420;50.876;7.012;2023-07-28T04:30:45;17.23;97.19
18581;DHT22;9420;50.876;7.012;2023-07-28T04:33:11;17.20;97.10
18581;DHT22;9420;50.876;7.012;2023-07-28T04:35:39;17.21;97.08
18581;DHT22;9420;50.876;7.012;2023-07-28T04:38:06;17.23;97.06
18581;DHT22;9420;50.876;7.012;2023-07-28T04:40:32;17.25;97.30
18581;DHT22;9420;50.876;7.012;2023-07-28T04:42:59;17.21;97.21
18581;DHT22;9420;50.876;7.012;2023-07-28T04:45:25;17.28;97.31
18581;DHT22;9420;50.876;7.012;2023-07-28T04:47:52;17.28;97.26
18581;DHT22;9420;50.876;7.012;2023-07-28T04:50:19;17.30;97.31
18581;DHT22;9420;50.876;7.012;2023-07-28T04:52:47;17.32;97.34
18581;DHT22;9420;50.876;7.012;2023-07-28T04:55:13;17.36;97.43
18581;DHT22;9420;50.876;7.012;2023-07-28T04:57:40;17.36;97.18
18581;DHT22;9420;50.876;7.012;2023-07-28T05:00:07;17.41;97.26
18581;DHT22;9420;50.876;7.012;2023-07-28T05:02:34;17.42;97.24
18581;DHT22;9420;50.876;7.012;2023-07-28T05:05:01;17.45;96.92
18581;DHT22;9420;50.876;7.012;2023-07-28T05:07:27;17.51;97.13
18581;DHT22;9420;50.876;7.012;2023-07-28T05:09:56;17.52;96.89
18581;DHT22;9420;50.876;7.012;2023-07-28T05:12:22;17.52;96.68
18581;DHT22;9420;50.876;7.012;2023-07-28T05:14:49;17.52;96.84
18581;DHT22;9420;50.876;7.012;2023-07-28T05:17:15;17.59;97.02
18581;DHT22;9420;50.876;7.012;2023-07-28T05:19:42;17.58;96.78
18581;DHT22;9420;50.876;7.012;2023-07-28T05:22:09;17.56;96.53
18581;DHT22;9420;50.876;7.012;2023-07-28T05:24:35;17.58;96.70
18581;DHT22;9420;50.876;7.012;2023-07-28T05:27:03;17.66;96.28
18581;DHT22;9420;50.876;7.012;2023-07-28T05:29:30;17.71;96.16
18581;DHT22;9420;50.876;7.012;2023-07-28T05:31:59;17.76;95.99
18581;DHT22;9420;50.876;7.012;2023-07-28T05:34:26;17.73;96.26
18581;DHT22;9420;50.876;7.012;2023-07-28T05:36:52;17.79;96.44
18581;DHT22;9420;50.876;7.012;2023-07-28T05:39:19;17.73;96.34
18581;DHT22;9420;50.876;7.012;2023-07-28T05:41:45;17.81;96.54
18581;DHT22;9420;50.876;7.012;2023-07-28T05:44:14;17.86;96.80
18581;DHT22;9420;50.876;7.012;2023-07-28T05:46:40;17.83;96.40
18581;DHT22;9420;50.876;7.012;2023-07-28T05:49:08;17.87;96.25
18581;DHT22;9420;50.876;7.012;2023-07-28T05:51:34;17.92;96.17
18581;DHT22;9420;50.876;7.012;2023-07-28T05:54:01;17.89;96.08
18581;DHT22;9420;50.876;7.012;2023-07-28T05:56:27;17.93;96.04
18581;DHT22;9420;50.876;7.012;2023-07-28T05:58:55;18.00;95.98
18581;DHT22;9420;50.876;7.012;2023-07-28T06:01:23;18.03;95.29
18581;DHT22;9420;50.876;7.012;2023-07-28T06:03:51;18.00;95.30
18581;DHT22;9420;50.876;7.012;2023-07-28T06:06:20;18.02;95.66
18581;DHT22;9420;50.876;7.012;2023-07-28T06:08:47;18.09;94.55
18581;DHT22;9420;50.876;7.012;2023-07-28T06:11:14;18.11;94.67
18581;DHT22;9420;50.876;7.012;2023-07-28T06:13:40;18.27;94.18
18581;DHT22;9420;50.876;7.012;2023-07-28T06:16:07;18.24;94.29
18581;DHT22;9420;50.876;7.012;2023-07-28T06:18:35;18.14;94.24
18581;DHT22;9420;50.876;7.012;2023-07-28T06:21:01;18.14;94.86
18581;DHT22;9420;50.876;7.012;2023-07-28T06:23:28;18.14;95.32
18581;DHT22;9420;50.876;7.012;2023-07-28T06:25:54;18.14;95.30
18581;DHT22;9420;50.876;7.012;2023-07-28T06:28:21;18.11;94.67
18581;DHT22;9420;50.876;7.012;2023-07-28T06:30:53;18.09;94.90
18581;DHT22;9420;50.876;7.012;2023-07-28T06:33:20;18.16;95.07
18581;DHT22;9420;50.876;7.012;2023-07-28T06:35:48;18.09;94.80
18581;DHT22;9420;50.876;7.012;2023-07-28T06:38:14;18.11;95.27
18581;DHT22;9420;50.876;7.012;2023-07-28T06:40:41;18.16;94.88
18581;DHT22;9420;50.876;7.012;2023-07-28T06:43:07;18.17;95.18
18581;DHT22;9420;50.876;7.012;2023-07-28T06:45:34;18.23;94.57
18581;DHT22;9420;50.876;7.012;2023-07-28T06:48:00;18.26;94.54
18581;DHT22;9420;50.876;7.012;2023-07-28T06:50:27;18.30;94.25
18581;DHT22;9420;50.876;7.012;2023-07-28T06:52:55;18.23;95.09
18581;DHT22;9420;50.876;7.012;2023-07-28T06:55:22;18.29;94.87
18581;DHT22;9420;50.876;7.012;2023-07-28T06:57:49;18.30;94.98
18581;DHT22;9420;50.876;7.012;2023-07-28T07:00:16;18.29;95.16
18581;DHT22;9420;50.876;7.012;2023-07-28T07:02:44;18.43;94.98
18581;DHT22;9420;50.876;7.012;2023-07-28T07:05:11;18.41;94.29
18581;DHT22;9420;50.876;7.012;2023-07-28T07:07:38;18.45;94.30
18581;DHT22;9420;50.876;7.012;2023-07-28T07:10:07;18.51;94.32
18581;DHT22;9420;50.876;7.012;2023-07-28T07:12:34;18.50;94.20
18581;DHT22;9420;50.876;7.012;2023-07-28T07:15:01;18.52;94.56
18581;DHT22;9420;50.876;7.012;2023-07-28T07:17:28;18.58;94.31
18581;DHT22;9420;50.876;7.012;2023-07-28T07:19:54;18.69;94.77
18581;DHT22;9420;50.876;7.012;2023-07-28T07:22:21;18.85;94.23
18581;DHT22;9420;50.876;7.012;2023-07-28T07:24:47;18.87;94.02
18581;DHT22;9420;50.876;7.012;2023-07-28T07:27:15;18.85;94.09
18581;DHT22;9420;50.876;7.012;2023-07-28T07:29:42;18.94;94.13
18581;DHT22;9420;50.876;7.012;2023-07-28T07:32:08;18.89;93.55
18581;DHT22;9420;50.876;7.012;2023-07-28T07:34:36;18.84;95.48
18581;DHT22;9420;50.876;7.012;2023-07-28T07:37:04;18.75;93.38
18581;DHT22;9420;50.876;7.012;2023-07-28T07:39:30;18.78;93.65
18581;DHT22;9420;50.876;7.012;2023-07-28T07:41:57;18.79;93.70
18581;DHT22;9420;50.876;7.012;2023-07-28T07:44:26;18.88;93.08
18581;DHT22;9420;50.876;7.012;2023-07-28T07:46:53;18.92;95.09
18581;DHT22;9420;50.876;7.012;2023-07-28T07:49:19;18.95;93.09
18581;DHT22;9420;50.876;7.012;2023-07-28T07:51:46;18.99;94.14
18581;DHT22;9420;50.876;7.012;2023-07-28T07:54:13;19.06;93.95
18581;DHT22;9420;50.876;7.012;2023-07-28T07:56:42;19.13;92.66
18581;DHT22;9420;50.876;7.012;2023-07-28T07:59:08;19.22;94.16
18581;DHT22;9420;50.876;7.012;2023-07-28T08:01:36;19.31;93.41
18581;DHT22;9420;50.876;7.012;2023-07-28T08:04:03;19.46;91.43
18581;DHT22;9420;50.876;7.012;2023-07-28T08:06:29;19.57;92.06
18581;DHT22;9420;50.876;7.012;2023-07-28T08:08:56;19.74;91.67
18581;DHT22;9420;50.876;7.012;2023-07-28T08:11:24;19.71;92.21
18581;DHT22;9420;50.876;7.012;2023-07-28T08:13:51;19.79;91.19
18581;DHT22;9420;50.876;7.012;2023-07-28T08:16:17;19.88;90.76
18581;DHT22;9420;50.876;7.012;2023-07-28T08:18:45;20.06;90.02
18581;DHT22;9420;50.876;7.012;2023-07-28T08:21:12;19.99;88.88
18581;DHT22;9420;50.876;7.012;2023-07-28T08:23:39;20.04;89.65
18581;DHT22;9420;50.876;7.012;2023-07-28T08:26:05;20.16;90.68
18581;DHT22;9420;50.876;7.012;2023-07-28T08:28:32;20.40;89.24
18581;DHT22;9420;50.876;7.012;2023-07-28T08:30:59;20.59;89.63
18581;DHT22;9420;50.876;7.012;2023-07-28T08:33:25;20.74;87.06
18581;DHT22;9420;50.876;7.012;2023-07-28T08:35:53;20.79;86.69
18581;DHT22;9420;50.876;7.012;2023-07-28T08:38:20;21.24;85.25
18581;DHT22;9420;50.876;7.012;2023-07-28T08:40:47;21.42;85.26
18581;DHT22;9420;50.876;7.012;2023-07-28T08:43:13;21.48;83.62
18581;DHT22;9420;50.876;7.012;2023-07-28T08:45:41;21.56;83.82
18581;DHT22;9420;50.876;7.012;2023-07-28T08:48:07;21.32;84.31
18581;DHT22;9420;50.876;7.012;2023-07-28T08:50:34;21.76;82.60
18581;DHT22;9420;50.876;7.012;2023-07-28T08:53:02;21.70;81.60
18581;DHT22;9420;50.876;7.012;2023-07-28T08:55:29;21.70;82.41
18581;DHT22;9420;50.876;7.012;2023-07-28T08:57:55;21.59;82.67
18581;DHT22;9420;50.876;7.012;2023-07-28T09:00:23;21.41;84.41
18581;DHT22;9420;50.876;7.012;2023-07-28T09:02:50;22.24;82.80
18581;DHT22;9420;50.876;7.012;2023-07-28T09:05:18;21.75;83.27
18581;DHT22;9420;50.876;7.012;2023-07-28T09:07:45;21.46;83.61
18581;DHT22;9420;50.876;7.012;2023-07-28T09:10:13;21.59;82.83
18581;DHT22;9420;50.876;7.012;2023-07-28T09:12:44;21.37;83.34
18581;DHT22;9420;50.876;7.012;2023-07-28T09:15:11;21.49;81.74
18581;DHT22;9420;50.876;7.012;2023-07-28T09:17:41;21.80;81.96
18581;DHT22;9420;50.876;7.012;2023-07-28T09:20:13;22.06;82.27
18581;DHT22;9420;50.876;7.012;2023-07-28T09:22:40;22.14;80.12
18581;DHT22;9420;50.876;7.012;2023-07-28T09:25:14;22.13;82.35
18581;DHT22;9420;50.876;7.012;2023-07-28T09:27:41;21.89;81.76
18581;DHT22;9420;50.876;7.012;2023-07-28T09:30:16;22.07;81.20
18581;DHT22;9420;50.876;7.012;2023-07-28T09:32:47;22.25;81.41
18581;DHT22;9420;50.876;7.012;2023-07-28T09:35:14;22.18;80.72
18581;DHT22;9420;50.876;7.012;2023-07-28T09:37:43;22.20;79.83
18581;DHT22;9420;50.876;7.012;2023-07-28T09:40:11;22.13;80.43
18581;DHT22;9420;50.876;7.012;2023-07-28T09:42:40;22.25;78.47
18581;DHT22;9420;50.876;7.012;2023-07-28T09:45:08;22.45;77.43
18581;DHT22;9420;50.876;7.012;2023-07-28T09:47:36;22.33;77.67
18581;DHT22;9420;50.876;7.012;2023-07-28T09:50:04;22.37;78.05
18581;DHT22;9420;50.876;7.012;2023-07-28T09:52:34;22.43;75.37
18581;DHT22;9420;50.876;7.012;2023-07-28T09:55:05;22.65;75.18
18581;DHT22;9420;50.876;7.012;2023-07-28T09:57:45;22.73;74.57
18581;DHT22;9420;50.876;7.012;2023-07-28T10:00:16;22.88;74.31
18581;DHT22;9420;50.876;7.012;2023-07-28T10:02:44;22.98;74.01
18581;DHT22;9420;50.876;7.012;2023-07-28T10:05:11;23.04;74.71
18581;DHT22;9420;50.876;7.012;2023-07-28T10:07:39;23.22;73.75
18581;DHT22;9420;50.876;7.012;2023-07-28T10:10:08;23.33;73.80
18581;DHT22;9420;50.876;7.012;2023-07-28T10:12:48;23.13;74.06
18581;DHT22;9420;50.876;7.012;2023-07-28T10:15:18;23.41;72.31
18581;DHT22;9420;50.876;7.012;2023-07-28T10:17:47;23.78;71.29
18581;DHT22;9420;50.876;7.012;2023-07-28T10:20:28;24.19;69.95
18581;DHT22;9420;50.876;7.012;2023-07-28T10:23:02;24.23;69.79
18581;DHT22;9420;50.876;7.012;2023-07-28T10:25:33;24.44;72.10
18581;DHT22;9420;50.876;7.012;2023-07-28T10:28:00;24.52;71.80
18581;DHT22;9420;50.876;7.012;2023-07-28T10:30:29;24.33;70.18
18581;DHT22;9420;50.876;7.012;2023-07-28T10:33:01;23.68;71.23
18581;DHT22;9420;50.876;7.012;2023-07-28T10:35:28;23.24;72.29
18581;DHT22;9420;50.876;7.012;2023-07-28T10:37:57;22.95;73.94
18581;DHT22;9420;50.876;7.012;2023-07-28T10:40:27;22.93;75.30
18581;DHT22;9420;50.876;7.012;2023-07-28T10:42:55;23.02;75.34
18581;DHT22;9420;50.876;7.012;2023-07-28T10:45:23;23.14;74.15
18581;DHT22;9420;50.876;7.012;2023-07-28T10:47:52;23.44;75.02
18581;DHT22;9420;50.876;7.012;2023-07-28T10:50:21;23.55;73.38
18581;DHT22;9420;50.876;7.012;2023-07-28T10:52:48;23.47;73.08
18581;DHT22;9420;50.876;7.012;2023-07-28T10:55:15;23.24;74.56
18581;DHT22;9420;50.876;7.012;2023-07-28T10:57:42;22.92;75.50
18581;DHT22;9420;50.876;7.012;2023-07-28T11:00:10;22.88;75.27
18581;DHT22;9420;50.876;7.012;2023-07-28T11:02:39;22.89;73.74
18581;DHT22;9420;50.876;7.012;2023-07-28T11:05:10;23.34;74.08
18581;DHT22;9420;50.876;7.012;2023-07-28T11:07:40;23.28;74.88
18581;DHT22;9420;50.876;7.012;2023-07-28T11:10:08;23.54;75.48
18581;DHT22;9420;50.876;7.012;2023-07-28T11:12:39;23.70;74.52
18581;DHT22;9420;50.876;7.012;2023-07-28T11:15:08;23.75;72.88
18581;DHT22;9420;50.876;7.012;2023-07-28T11:17:36;24.02;72.60
18581;DHT22;9420;50.876;7.012;2023-07-28T11:20:04;24.30;71.84
18581;DHT22;9420;50.876;7.012;2023-07-28T11:22:37;24.43;69.84
18581;DHT22;9420;50.876;7.012;2023-07-28T11:25:06;24.39;68.01
18581;DHT22;9420;50.876;7.012;2023-07-28T11:27:34;24.66;68.70
18581;DHT22;9420;50.876;7.012;2023-07-28T11:30:01;24.63;69.00
18581;DHT22;9420;50.876;7.012;2023-07-28T11:32:30;24.37;68.80
18581;DHT22;9420;50.876;7.012;2023-07-28T11:35:02;24.18;68.70
18581;DHT22;9420;50.876;7.012;2023-07-28T11:37:30;24.32;68.54
18581;DHT22;9420;50.876;7.012;2023-07-28T11:39:59;24.06;69.85
18581;DHT22;9420;50.876;7.012;2023-07-28T11:42:26;23.75;70.95
18581;DHT22;9420;50.876;7.012;2023-07-28T11:44:52;23.20;76.81
18581;DHT22;9420;50.876;7.012;2023-07-28T11:47:19;22.55;78.63
18581;DHT22;9420;50.876;7.012;2023-07-28T11:49:47;22.24;80.01
18581;DHT22;9420;50.876;7.012;2023-07-28T11:52:14;22.14;80.21
18581;DHT22;9420;50.876;7.012;2023-07-28T11:54:41;22.13;82.20
18581;DHT22;9420;50.876;7.012;2023-07-28T11:57:11;22.11;81.29
18581;DHT22;9420;50.876;7.012;2023-07-28T11:59:39;22.21;81.33
18581;DHT22;9420;50.876;7.012;2023-07-28T12:02:07;22.93;79.26
18581;DHT22;9420;50.876;7.012;2023-07-28T12:04:36;23.74;76.74
18581;DHT22;9420;50.876;7.012;2023-07-28T12:07:06;26.30;70.20
18581;DHT22;9420;50.876;7.012;2023-07-28T12:09:33;26.67;66.31
18581;DHT22;9420;50.876;7.012;2023-07-28T12:12:00;25.65;66.89
18581;DHT22;9420;50.876;7.012;2023-07-28T12:14:35;26.49;67.28
18581;DHT22;9420;50.876;7.012;2023-07-28T12:17:01;26.51;68.22
18581;DHT22;9420;50.876;7.012;2023-07-28T12:19:28;25.42;70.69
18581;DHT22;9420;50.876;7.012;2023-07-28T12:21:55;25.36;66.79
18581;DHT22;9420;50.876;7.012;2023-07-28T12:24:22;24.78;70.35
18581;DHT22;9420;50.876;7.012;2023-07-28T12:26:50;24.78;68.47
18581;DHT22;9420;50.876;7.012;2023-07-28T12:29:17;24.63;71.39
18581;DHT22;9420;50.876;7.012;2023-07-28T12:31:45;24.70;69.70
18581;DHT22;9420;50.876;7.012;2023-07-28T12:34:11;24.61;73.15
18581;DHT22;9420;50.876;7.012;2023-07-28T12:36:38;24.68;67.70
18581;DHT22;9420;50.876;7.012;2023-07-28T12:39:05;24.40;69.42
18581;DHT22;9420;50.876;7.012;2023-07-28T12:41:32;24.44;69.51
18581;DHT22;9420;50.876;7.012;2023-07-28T12:43:59;24.53;68.10
18581;DHT22;9420;50.876;7.012;2023-07-28T12:46:25;24.41;67.02
18581;DHT22;9420;50.876;7.012;2023-07-28T12:48:54;24.25;69.29
18581;DHT22;9420;50.876;7.012;2023-07-28T12:51:20;24.02;69.26
18581;DHT22;9420;50.876;7.012;2023-07-28T12:53:47;24.02;69.03
18581;DHT22;9420;50.876;7.012;2023-07-28T12:56:14;23.84;69.40
18581;DHT22;9420;50.876;7.012;2023-07-28T12:58:41;23.70;71.55
18581;DHT22;9420;50.876;7.012;2023-07-28T13:01:09;23.41;74.67
18581;DHT22;9420;50.876;7.012;2023-07-28T13:03:37;22.76;78.86
18581;DHT22;9420;50.876;7.012;2023-07-28T13:06:05;21.92;82.90
18581;DHT22;9420;50.876;7.012;2023-07-28T13:08:32;21.67;83.21
18581;DHT22;9420;50.876;7.012;2023-07-28T13:10:58;21.72;82.04
18581;DHT22;9420;50.876;7.012;2023-07-28T13:13:25;21.90;82.69
18581;DHT22;9420;50.876;7.012;2023-07-28T13:15:53;22.20;83.31
18581;DHT22;9420;50.876;7.012;2023-07-28T13:18:20;22.51;80.04
18581;DHT22;9420;50.876;7.012;2023-07-28T13:20:47;22.85;77.14
18581;DHT22;9420;50.876;7.012;2023-07-28T13:23:15;23.22;77.10
18581;DHT22;9420;50.876;7.012;2023-07-28T13:25:41;23.60;80.08
18581;DHT22;9420;50.876;7.012;2023-07-28T13:28:08;23.88;73.79
18581;DHT22;9420;50.876;7.012;2023-07-28T13:30:34;23.94;72.48
18581;DHT22;9420;50.876;7.012;2023-07-28T13:33:01;23.92;74.58
18581;DHT22;9420;50.876;7.012;2023-07-28T13:35:28;23.74;74.06
18581;DHT22;9420;50.876;7.012;2023-07-28T13:37:55;23.51;73.58
18581;DHT22;9420;50.876;7.012;2023-07-28T13:40:23;23.44;73.72
18581;DHT22;9420;50.876;7.012;2023-07-28T13:42:49;23.24;74.23
18581;DHT22;9420;50.876;7.012;2023-07-28T13:45:16;23.13;75.27
18581;DHT22;9420;50.876;7.012;2023-07-28T13:47:42;23.09;74.42
18581;DHT22;9420;50.876;7.012;2023-07-28T13:50:09;23.03;74.90
18581;DHT22;9420;50.876;7.012;2023-07-28T13:52:36;22.35;80.66
18581;DHT22;9420;50.876;7.012;2023-07-28T13:55:03;21.59;84.03
18581;DHT22;9420;50.876;7.012;2023-07-28T13:57:32;21.63;85.61
18581;DHT22;9420;50.876;7.012;2023-07-28T13:59:59;21.97;83.61
18581;DHT22;9420;50.876;7.012;2023-07-28T14:02:26;22.41;82.80
18581;DHT22;9420;50.876;7.012;2023-07-28T14:04:52;22.98;80.80
18581;DHT22;9420;50.876;7.012;2023-07-28T14:07:19;22.98;81.50
18581;DHT22;9420;50.876;7.012;2023-07-28T14:09:45;22.88;82.49
18581;DHT22;9420;50.876;7.012;2023-07-28T14:12:12;22.91;80.67
18581;DHT22;9420;50.876;7.012;2023-07-28T14:14:40;22.71;78.69
18581;DHT22;9420;50.876;7.012;2023-07-28T14:17:07;22.88;78.21
18581;DHT22;9420;50.876;7.012;2023-07-28T14:19:33;23.12;78.53
18581;DHT22;9420;50.876;7.012;2023-07-28T14:22:00;23.04;81.67
18581;DHT22;9420;50.876;7.012;2023-07-28T14:24:27;22.71;84.18
18581;DHT22;9420;50.876;7.012;2023-07-28T14:26:53;22.52;83.70
18581;DHT22;9420;50.876;7.012;2023-07-28T14:29:20;22.58;83.57
18581;DHT22;9420;50.876;7.012;2023-07-28T14:31:49;23.14;81.19
18581;DHT22;9420;50.876;7.012;2023-07-28T14:34:15;24.80;77.02
18581;DHT22;9420;50.876;7.012;2023-07-28T14:36:42;26.37;74.11
18581;DHT22;9420;50.876;7.012;2023-07-28T14:39:08;26.93;71.14
18581;DHT22;9420;50.876;7.012;2023-07-28T14:41:35;26.62;72.88
18581;DHT22;9420;50.876;7.012;2023-07-28T14:44:03;26.20;71.55
18581;DHT22;9420;50.876;7.012;2023-07-28T14:46:29;24.87;76.07
18581;DHT22;9420;50.876;7.012;2023-07-28T14:48:57;24.25;76.31
18581;DHT22;9420;50.876;7.012;2023-07-28T14:51:24;23.94;78.91
18581;DHT22;9420;50.876;7.012;2023-07-28T14:53:51;24.12;78.19
18581;DHT22;9420;50.876;7.012;2023-07-28T14:56:18;24.22;76.55
18581;DHT22;9420;50.876;7.012;2023-07-28T14:58:49;23.71;76.18
18581;DHT22;9420;50.876;7.012;2023-07-28T15:01:21;23.47;78.94
18581;DHT22;9420;50.876;7.012;2023-07-28T15:03:47;23.57;78.32
18581;DHT22;9420;50.876;7.012;2023-07-28T15:06:15;24.52;75.10
18581;DHT22;9420;50.876;7.012;2023-07-28T15:08:42;27.26;66.68
18581;DHT22;9420;50.876;7.012;2023-07-28T15:11:08;29.42;61.22
18581;DHT22;9420;50.876;7.012;2023-07-28T15:13:35;30.16;61.07
18581;DHT22;9420;50.876;7.012;2023-07-28T15:16:02;28.12;64.61
18581;DHT22;9420;50.876;7.012;2023-07-28T15:18:28;26.89;69.31
18581;DHT22;9420;50.876;7.012;2023-07-28T15:20:55;25.80;70.47
18581;DHT22;9420;50.876;7.012;2023-07-28T15:26:25;25.36;71.40
18581;DHT22;9420;50.876;7.012;2023-07-28T15:28:52;25.70;71.69
18581;DHT22;9420;50.876;7.012;2023-07-28T15:31:33;25.36;70.85
18581;DHT22;9420;50.876;7.012;2023-07-28T15:34:00;26.37;67.48
18581;DHT22;9420;50.876;7.012;2023-07-28T15:36:28;25.56;68.58
18581;DHT22;9420;50.876;7.012;2023-07-28T15:39:00;26.49;65.42
18581;DHT22;9420;50.876;7.012;2023-07-28T15:41:38;27.07;64.22
18581;DHT22;9420;50.876;7.012;2023-07-28T15:44:08;26.98;64.25
18581;DHT22;9420;50.876;7.012;2023-07-28T15:46:39;28.81;59.02
18581;DHT22;9420;50.876;7.012;2023-07-28T15:49:07;29.49;56.88